createdAt,value
2017-08-14T00:02:18.338Z,97.50
2017-08-14T00:04:46.639Z,97.50
2017-08-14T00:07:14.446Z,97.50
2017-08-14T00:09:42.063Z,97.40
2017-08-14T00:12:09.575Z,97.50
2017-08-14T00:14:37.182Z,97.50
2017-08-14T00:17:04.839Z,97.50
2017-08-14T00:19:32.398Z,97.70
2017-08-14T00:21:59.959Z,98.00
2017-08-14T00:24:27.614Z,98.40
2017-08-14T00:26:55.119Z,98.50
2017-08-14T00:29:22.735Z,98.60
2017-08-14T00:31:50.333Z,98.60
2017-08-14T00:34:17.960Z,98.60
2017-08-14T00:36:45.885Z,98.50
2017-08-14T00:39:13.406Z,98.50
2017-08-14T00:41:40.907Z,98.50
2017-08-14T00:44:08.499Z,98.50
2017-08-14T00:46:36.062Z,98.40
2017-08-14T00:49:03.578Z,98.30
2017-08-14T00:51:31.183Z,98.10
2017-08-14T00:53:58.706Z,98.20
2017-08-14T00:56:26.972Z,98.30
2017-08-14T00:58:54.566Z,98.10
2017-08-14T01:01:22.855Z,98.30
2017-08-14T01:03:50.403Z,98.20
2017-08-14T01:06:17.919Z,98.40
2017-08-14T01:08:45.530Z,98.40
2017-08-14T01:11:13.056Z,98.40
2017-08-14T01:13:41.475Z,98.60
2017-08-14T01:16:09.039Z,98.60
2017-08-14T01:18:36.942Z,98.60
2017-08-14T01:21:04.554Z,98.50
2017-08-14T01:23:32.102Z,98.40
2017-08-14T01:25:59.622Z,98.40
2017-08-14T01:28:27.219Z,98.30
2017-08-14T01:30:54.784Z,98.40
2017-08-14T01:33:23.095Z,98.40
2017-08-14T01:35:51.498Z,98.30
2017-08-14T01:38:19.095Z,98.30
2017-08-14T01:40:46.879Z,98.30
2017-08-14T01:43:14.640Z,98.00
2017-08-14T01:45:42.189Z,97.90
2017-08-14T01:48:09.719Z,97.70
2017-08-14T01:50:38.023Z,98.10
2017-08-14T01:53:06.090Z,98.10
2017-08-14T01:55:33.590Z,98.20
2017-08-14T01:58:01.203Z,98.00
2017-08-14T02:00:28.771Z,98.00
2017-08-14T02:02:57.159Z,98.10
2017-08-14T02:05:25.422Z,98.10
2017-08-14T02:07:52.943Z,98.30
2017-08-14T02:10:20.534Z,98.30
2017-08-14T02:12:48.511Z,98.40
2017-08-14T02:15:16.071Z,98.30
2017-08-14T02:17:43.626Z,98.20
2017-08-14T02:20:11.128Z,98.30
2017-08-14T02:22:38.644Z,98.40
2017-08-14T02:25:06.147Z,98.50
2017-08-14T02:27:34.478Z,98.60
2017-08-14T02:30:01.981Z,98.60
2017-08-14T02:32:30.123Z,98.60
2017-08-14T02:34:58.347Z,98.60
2017-08-14T02:37:25.871Z,98.80
2017-08-14T02:39:53.371Z,99.10
2017-08-14T02:42:21.780Z,99.70
2017-08-14T02:44:49.339Z,99.30
2017-08-14T02:47:16.898Z,99.10
2017-08-14T02:49:44.403Z,99.10
2017-08-14T02:52:12.019Z,99.10
2017-08-14T02:54:40.495Z,99.10
2017-08-14T02:57:08.558Z,99.20
2017-08-14T02:59:36.223Z,99.10
2017-08-14T03:02:03.783Z,99.10
2017-08-14T03:04:31.299Z,99.00
2017-08-14T03:06:58.794Z,99.00
2017-08-14T03:09:27.027Z,99.00
2017-08-14T03:11:54.531Z,99.20
2017-08-14T03:14:22.808Z,99.20
2017-08-14T03:16:50.373Z,99.10
2017-08-14T03:19:17.931Z,99.00
2017-08-14T03:21:46.152Z,99.00
2017-08-14T03:24:13.667Z,99.00
2017-08-14T03:26:41.930Z,98.90
2017-08-14T03:29:10.151Z,98.90
2017-08-14T03:31:37.845Z,98.60
2017-08-14T03:34:06.186Z,98.50
2017-08-14T03:36:33.711Z,98.40
2017-08-14T03:39:01.271Z,98.30
2017-08-14T03:41:28.832Z,98.40
2017-08-14T03:43:58.000Z,98.40
2017-08-14T03:46:26.201Z,98.40
2017-08-14T03:48:54.015Z,98.40
2017-08-14T03:51:21.539Z,98.40
2017-08-14T03:53:49.423Z,98.40
2017-08-14T03:56:17.042Z,98.40
2017-08-14T03:58:44.660Z,98.40
2017-08-14T04:01:12.176Z,98.50
2017-08-14T04:03:39.718Z,98.50
2017-08-14T04:06:07.238Z,98.40
2017-08-14T04:08:35.656Z,98.30
2017-08-14T04:11:03.218Z,98.30
2017-08-14T04:13:31.082Z,98.30
2017-08-14T04:15:58.648Z,98.40
2017-08-14T04:18:26.159Z,98.50
2017-08-14T04:20:53.680Z,98.70
2017-08-14T04:23:21.214Z,98.90
2017-08-14T04:25:48.755Z,99.10
2017-08-14T04:28:17.050Z,99.00
2017-08-14T04:30:44.615Z,99.00
2017-08-14T04:33:12.175Z,98.90
2017-08-14T04:35:39.763Z,99.20
2017-08-14T04:38:07.339Z,99.40
2017-08-14T04:40:34.951Z,99.40
2017-08-14T04:43:02.558Z,99.40
2017-08-14T04:45:30.067Z,99.20
2017-08-14T04:47:58.415Z,99.10
2017-08-14T04:50:26.682Z,98.90
2017-08-14T04:52:54.204Z,99.00
2017-08-14T04:55:21.743Z,99.10
2017-08-14T04:57:49.264Z,98.90
2017-08-14T05:00:18.119Z,98.50
2017-08-14T05:02:45.851Z,98.50
2017-08-14T05:05:13.358Z,98.30
2017-08-14T05:07:40.963Z,98.20
2017-08-14T05:10:08.582Z,98.40
2017-08-14T05:12:36.885Z,98.60
2017-08-14T05:15:05.178Z,98.50
2017-08-14T05:17:33.203Z,98.80
2017-08-14T05:20:00.812Z,98.30
2017-08-14T05:22:28.371Z,98.30
2017-08-14T05:24:55.896Z,98.30
2017-08-14T05:27:24.198Z,98.40
2017-08-14T05:29:51.763Z,98.10
2017-08-14T05:32:19.319Z,98.10
2017-08-14T05:34:46.876Z,98.10
2017-08-14T05:37:14.543Z,98.10
2017-08-14T05:39:42.059Z,98.10
2017-08-14T05:42:09.564Z,97.90
2017-08-14T05:44:37.132Z,97.80
2017-08-14T05:47:04.658Z,97.80
2017-08-14T05:49:33.042Z,97.80
2017-08-14T05:52:00.614Z,97.70
2017-08-14T05:54:28.119Z,97.60
2017-08-14T05:56:55.731Z,97.20
2017-08-14T05:59:23.619Z,97.00
2017-08-14T06:01:51.139Z,97.00
2017-08-14T06:04:19.523Z,96.60
2017-08-14T06:06:47.507Z,96.60
2017-08-14T06:09:16.731Z,96.60
2017-08-14T06:11:44.356Z,96.50
2017-08-14T06:14:12.544Z,95.90
2017-08-14T06:16:40.095Z,96.30
2017-08-14T06:19:07.662Z,95.90
2017-08-14T06:21:35.182Z,96.00
2017-08-14T06:24:03.550Z,95.80
2017-08-14T06:26:31.071Z,95.80
2017-08-14T06:28:59.590Z,95.40
2017-08-14T06:31:27.102Z,95.30
2017-08-14T06:33:54.647Z,94.70
2017-08-14T06:36:22.319Z,94.70
2017-08-14T06:38:50.295Z,93.80
2017-08-14T06:41:17.902Z,94.10
2017-08-14T06:43:46.210Z,93.90
2017-08-14T06:46:13.750Z,93.70
2017-08-14T06:48:42.043Z,93.90
2017-08-14T06:51:09.548Z,93.90
2017-08-14T06:53:37.879Z,93.90
2017-08-14T06:56:05.383Z,93.00
2017-08-14T06:58:32.999Z,93.70
2017-08-14T07:01:00.499Z,93.70
2017-08-14T07:03:28.115Z,92.80
2017-08-14T07:05:56.387Z,93.00
2017-08-14T07:08:23.912Z,92.50
2017-08-14T07:10:51.510Z,92.30
2017-08-14T07:13:19.067Z,92.00
2017-08-14T07:15:47.277Z,91.80
2017-08-14T07:18:14.798Z,91.70
2017-08-14T07:20:42.363Z,92.20
2017-08-14T07:23:09.888Z,92.40
2017-08-14T07:25:38.166Z,91.30
2017-08-14T07:28:06.449Z,90.90
2017-08-14T07:30:35.476Z,90.60
2017-08-14T07:33:03.027Z,90.60
2017-08-14T07:35:30.581Z,91.10
2017-08-14T07:37:58.968Z,90.90
2017-08-14T07:40:26.471Z,91.10
2017-08-14T07:42:54.080Z,90.90
2017-08-14T07:45:21.608Z,90.20
2017-08-14T07:47:49.916Z,89.70
2017-08-14T07:50:17.439Z,89.60
2017-08-14T07:52:45.755Z,90.30
2017-08-14T07:55:13.311Z,89.90
2017-08-14T07:57:40.807Z,90.00
2017-08-14T08:00:08.431Z,89.60
2017-08-14T08:02:36.347Z,89.20
2017-08-14T08:05:03.996Z,87.60
2017-08-14T08:07:31.511Z,86.80
2017-08-14T08:09:59.174Z,87.70
2017-08-14T08:12:26.727Z,86.30
2017-08-14T08:14:54.311Z,85.90
2017-08-14T08:17:21.807Z,86.50
2017-08-14T08:19:50.122Z,83.30
2017-08-14T08:22:17.697Z,84.70
2017-08-14T08:24:45.244Z,83.90
2017-08-14T08:27:12.750Z,85.10
2017-08-14T08:29:40.348Z,81.60
2017-08-14T08:32:07.923Z,79.70
2017-08-14T08:34:35.479Z,80.30
2017-08-14T08:37:03.449Z,83.20
2017-08-14T08:39:30.987Z,82.10
2017-08-14T08:41:59.285Z,81.90
2017-08-14T08:44:26.839Z,81.80
2017-08-14T08:46:54.815Z,81.90
2017-08-14T08:49:22.372Z,79.30
2017-08-14T08:51:49.937Z,79.80
2017-08-14T08:54:18.106Z,80.10
2017-08-14T08:56:45.631Z,79.80
2017-08-14T08:59:13.899Z,80.30
2017-08-14T09:01:41.494Z,80.30
2017-08-14T09:04:09.115Z,79.50
2017-08-14T09:06:37.348Z,78.80
2017-08-14T09:09:04.995Z,76.70
2017-08-14T09:11:32.555Z,72.90
2017-08-14T09:14:00.767Z,75.50
2017-08-14T09:16:28.379Z,74.50
2017-08-14T09:18:55.884Z,73.80
2017-08-14T09:21:23.506Z,73.80
2017-08-14T09:23:51.888Z,75.80
2017-08-14T09:26:20.426Z,75.50
2017-08-14T09:28:48.027Z,73.40
2017-08-14T09:31:15.791Z,69.80
2017-08-14T09:33:43.507Z,71.50
2017-08-14T09:36:11.744Z,69.80
2017-08-14T09:38:39.283Z,71.00
2017-08-14T09:41:06.796Z,70.60
2017-08-14T09:43:34.609Z,72.20
2017-08-14T09:46:02.115Z,68.50
2017-08-14T09:48:29.725Z,68.10
2017-08-14T09:50:57.285Z,69.40
2017-08-14T09:53:25.302Z,67.90
2017-08-14T09:55:52.811Z,67.80
2017-08-14T09:58:20.331Z,67.30
2017-08-14T10:00:47.835Z,68.00
2017-08-14T10:03:15.359Z,66.60
2017-08-14T10:05:43.653Z,66.40
2017-08-14T10:08:11.179Z,66.40
2017-08-14T10:10:38.785Z,59.80
2017-08-14T10:13:06.336Z,61.70
2017-08-14T10:15:33.844Z,60.90
2017-08-14T10:18:01.346Z,63.10
2017-08-14T10:20:28.907Z,62.30
2017-08-14T10:22:56.410Z,62.10
2017-08-14T10:25:23.923Z,65.30
2017-08-14T10:27:52.139Z,67.90
2017-08-14T10:30:19.768Z,61.40
2017-08-14T10:32:47.335Z,59.30
2017-08-14T10:35:14.879Z,61.90
2017-08-14T10:37:42.439Z,61.50
2017-08-14T10:40:10.000Z,61.70
2017-08-14T10:42:37.508Z,67.20
2017-08-14T10:45:05.039Z,59.90
2017-08-14T10:47:32.543Z,59.50
2017-08-14T10:50:00.956Z,61.30
2017-08-14T10:52:28.516Z,61.40
2017-08-14T10:54:56.071Z,58.40
2017-08-14T10:57:23.635Z,58.50
2017-08-14T10:59:51.136Z,54.00
2017-08-14T11:02:18.748Z,52.90
2017-08-14T11:04:46.715Z,50.20
2017-08-14T11:07:14.240Z,51.50
2017-08-14T11:09:41.746Z,48.60
2017-08-14T11:12:09.296Z,46.40
2017-08-14T11:14:36.795Z,45.00
2017-08-14T11:17:04.319Z,42.30
2017-08-14T11:19:31.825Z,44.20
2017-08-14T11:21:59.512Z,41.30
2017-08-14T11:24:27.087Z,39.70
2017-08-14T11:26:54.644Z,39.80
2017-08-14T11:29:22.924Z,38.20
2017-08-14T11:31:50.955Z,36.60
2017-08-14T11:34:18.551Z,35.50
2017-08-14T11:36:46.112Z,36.30
2017-08-14T11:39:13.680Z,37.10
2017-08-14T11:41:41.199Z,36.70
2017-08-14T11:44:10.383Z,37.70
2017-08-14T11:46:37.983Z,37.70
2017-08-14T11:49:05.492Z,37.80
2017-08-14T11:51:33.088Z,35.30
2017-08-14T11:54:00.595Z,34.00
2017-08-14T11:56:28.214Z,34.50
2017-08-14T11:58:55.779Z,34.90
2017-08-14T12:01:23.344Z,34.30
2017-08-14T12:03:50.904Z,35.50
2017-08-14T12:06:18.427Z,35.50
2017-08-14T12:08:46.700Z,36.10
2017-08-14T12:11:14.991Z,37.50
2017-08-14T12:13:43.260Z,37.20
2017-08-14T12:16:11.669Z,37.20
2017-08-14T12:18:39.224Z,37.20
2017-08-14T12:21:06.732Z,39.30
2017-08-14T12:23:34.252Z,41.10
2017-08-14T12:26:01.875Z,43.20
2017-08-14T12:28:30.116Z,46.20
2017-08-14T12:30:57.622Z,45.50
2017-08-14T12:33:25.187Z,48.20
2017-08-14T12:35:53.248Z,45.40
2017-08-14T12:38:20.768Z,49.10
2017-08-14T12:40:48.376Z,50.30
2017-08-14T12:43:15.937Z,49.00
2017-08-14T12:45:44.230Z,52.60
2017-08-14T12:48:11.751Z,49.60
2017-08-14T12:50:39.283Z,50.10
2017-08-14T12:53:06.887Z,50.80
2017-08-14T12:55:34.390Z,51.00
2017-08-14T12:58:01.886Z,52.70
2017-08-14T13:00:29.463Z,52.80
2017-08-14T13:02:57.015Z,53.60
2017-08-14T13:05:24.584Z,52.70
2017-08-14T13:07:52.633Z,54.40
2017-08-14T13:10:20.914Z,54.60
2017-08-14T13:12:48.415Z,54.60
2017-08-14T13:15:16.201Z,55.70
2017-08-14T13:17:43.702Z,55.20
2017-08-14T13:20:11.372Z,55.10
2017-08-14T13:22:38.883Z,57.00
2017-08-14T13:25:06.404Z,57.20
2017-08-14T13:27:33.938Z,56.40
2017-08-14T13:30:01.503Z,56.10
2017-08-14T13:32:29.059Z,55.30
2017-08-14T13:34:56.575Z,55.20
2017-08-14T13:37:24.071Z,55.60
2017-08-14T13:39:52.559Z,57.40
2017-08-14T13:42:20.959Z,56.50
2017-08-14T13:44:48.496Z,55.20
2017-08-14T13:47:16.671Z,55.00
2017-08-14T13:49:44.179Z,53.60
2017-08-14T13:52:11.700Z,53.00
2017-08-14T13:54:39.199Z,53.70
2017-08-14T13:57:06.796Z,51.70
2017-08-14T13:59:35.499Z,53.40
2017-08-14T14:02:03.025Z,52.10
2017-08-14T14:04:31.300Z,54.70
2017-08-14T14:06:59.583Z,52.30
2017-08-14T14:09:27.083Z,52.20
2017-08-14T14:11:55.534Z,51.20
2017-08-14T14:14:23.090Z,53.30
2017-08-14T14:16:50.652Z,53.60
2017-08-14T14:19:18.217Z,51.70
2017-08-14T14:21:45.774Z,53.40
2017-08-14T14:24:15.133Z,50.90
2017-08-14T14:26:42.740Z,51.30
2017-08-14T14:29:10.247Z,53.70
2017-08-14T14:31:37.771Z,50.10
2017-08-14T14:34:05.710Z,52.00
2017-08-14T14:36:33.380Z,52.30
2017-08-14T14:39:00.883Z,50.60
2017-08-14T14:41:28.494Z,49.40
2017-08-14T14:43:56.063Z,49.70
2017-08-14T14:46:23.918Z,50.10
2017-08-14T14:48:51.452Z,48.00
2017-08-14T14:51:19.419Z,48.90
2017-08-14T14:53:47.007Z,44.80
2017-08-14T14:56:14.510Z,42.80
2017-08-14T14:58:42.126Z,40.00
2017-08-14T15:01:09.637Z,36.20
2017-08-14T15:03:37.244Z,32.40
2017-08-14T15:06:04.812Z,30.50
2017-08-14T15:08:32.340Z,28.40
2017-08-14T15:11:00.615Z,26.20
2017-08-14T15:13:28.901Z,24.00
2017-08-14T15:15:56.474Z,24.00
2017-08-14T15:18:24.031Z,24.80
2017-08-14T15:20:52.055Z,23.60
2017-08-14T15:23:19.658Z,23.50
2017-08-14T15:25:47.168Z,24.60
2017-08-14T15:28:14.771Z,24.60
2017-08-14T15:30:42.334Z,24.30
2017-08-14T15:33:09.901Z,23.60
2017-08-14T15:35:37.456Z,23.30
2017-08-14T15:38:04.975Z,21.70
2017-08-14T15:40:32.576Z,22.00
2017-08-14T15:43:00.582Z,21.80
2017-08-14T15:45:28.229Z,21.30
2017-08-14T15:47:55.736Z,22.10
2017-08-14T15:50:24.036Z,23.80
2017-08-14T15:52:51.595Z,23.80
2017-08-14T15:55:19.159Z,23.80
2017-08-14T15:57:46.671Z,23.80
2017-08-14T16:00:14.274Z,24.90
2017-08-14T16:02:41.814Z,26.40
2017-08-14T16:05:10.103Z,28.90
2017-08-14T16:07:37.666Z,28.80
2017-08-14T16:10:05.228Z,31.40
2017-08-14T16:12:33.233Z,32.20
2017-08-14T16:15:00.855Z,33.10
2017-08-14T16:17:29.014Z,33.80
2017-08-14T16:19:58.123Z,37.00
2017-08-14T16:22:25.655Z,37.00
2017-08-14T16:24:53.923Z,38.00
2017-08-14T16:27:21.449Z,38.00
2017-08-14T16:29:48.991Z,39.10
2017-08-14T16:32:16.531Z,40.10
2017-08-14T16:34:44.146Z,41.60
2017-08-14T16:37:11.761Z,41.50
2017-08-14T16:39:39.320Z,41.90
2017-08-14T16:42:07.992Z,43.20
2017-08-14T16:44:35.502Z,44.80
2017-08-14T16:47:06.031Z,45.40
2017-08-14T16:49:33.643Z,46.20
2017-08-14T16:52:01.163Z,46.20
2017-08-14T16:54:28.671Z,46.40
2017-08-14T16:56:56.196Z,47.00
2017-08-14T16:59:24.324Z,47.30
2017-08-14T17:01:51.856Z,47.10
2017-08-14T17:04:19.407Z,47.90
2017-08-14T17:06:46.932Z,47.70
2017-08-14T17:09:15.243Z,48.30
2017-08-14T17:11:42.804Z,48.30
2017-08-14T17:14:10.315Z,49.00
2017-08-14T17:16:37.919Z,48.70
2017-08-14T17:19:05.423Z,49.60
2017-08-14T17:21:33.757Z,49.50
2017-08-14T17:24:01.326Z,49.50
2017-08-14T17:26:29.030Z,51.60
2017-08-14T17:28:56.546Z,52.70
2017-08-14T17:31:24.048Z,53.50
2017-08-14T17:33:51.651Z,54.20
2017-08-14T17:36:19.621Z,54.50
2017-08-14T17:38:47.184Z,54.70
2017-08-14T17:41:14.743Z,54.80
2017-08-14T17:43:42.305Z,55.70
2017-08-14T17:46:10.371Z,55.90
2017-08-14T17:48:38.031Z,56.50
2017-08-14T17:51:05.534Z,56.70
2017-08-14T17:53:33.056Z,57.70
2017-08-14T17:56:00.604Z,58.20
2017-08-14T17:58:28.163Z,58.20
2017-08-14T18:00:56.131Z,59.80
2017-08-14T18:03:23.644Z,59.80
2017-08-14T18:05:51.177Z,58.80
2017-08-14T18:08:18.683Z,59.30
2017-08-14T18:10:46.982Z,61.80
2017-08-14T18:13:14.491Z,61.70
2017-08-14T18:15:42.099Z,62.50
2017-08-14T18:18:09.608Z,63.50
2017-08-14T18:20:37.129Z,63.90
2017-08-14T18:23:04.635Z,64.70
2017-08-14T18:25:32.162Z,65.50
2017-08-14T18:27:59.668Z,66.50
2017-08-14T18:30:27.952Z,68.10
2017-08-14T18:32:56.218Z,68.70
2017-08-14T18:35:24.505Z,69.90
2017-08-14T18:37:52.775Z,69.90
2017-08-14T18:40:21.179Z,71.60
2017-08-14T18:42:48.727Z,71.50
2017-08-14T18:45:16.958Z,72.50
2017-08-14T18:47:44.496Z,73.90
2017-08-14T18:50:12.057Z,73.80
2017-08-14T18:52:39.635Z,73.60
2017-08-14T18:55:07.140Z,74.00
2017-08-14T18:57:34.669Z,74.70
2017-08-14T19:00:02.948Z,75.50
2017-08-14T19:02:31.250Z,76.10
2017-08-14T19:04:59.328Z,76.00
2017-08-14T19:07:27.969Z,76.60
2017-08-14T19:09:55.893Z,76.70
2017-08-14T19:12:22.923Z,77.10
2017-08-14T19:14:50.427Z,78.00
2017-08-14T19:17:18.044Z,77.80
2017-08-14T19:19:45.906Z,78.70
2017-08-14T19:22:13.432Z,79.20
2017-08-14T19:24:41.707Z,79.50
2017-08-14T19:27:10.783Z,79.50
2017-08-14T19:29:38.290Z,79.50
2017-08-14T19:32:06.289Z,79.90
2017-08-14T19:34:33.804Z,80.30
2017-08-14T19:37:02.097Z,81.90
2017-08-14T19:39:29.656Z,81.90
2017-08-14T19:41:57.724Z,81.90
2017-08-14T19:44:25.383Z,82.30
2017-08-14T19:46:52.938Z,82.00
2017-08-14T19:49:20.460Z,82.90
2017-08-14T19:51:48.055Z,82.80
2017-08-14T19:54:15.580Z,82.90
2017-08-14T19:56:43.616Z,82.90
2017-08-14T19:59:11.253Z,83.60
2017-08-14T20:01:38.811Z,83.40
2017-08-14T20:04:06.336Z,83.70
2017-08-14T20:06:34.652Z,84.90
2017-08-14T20:09:02.828Z,84.40
2017-08-14T20:11:30.331Z,84.70
2017-08-14T20:13:57.935Z,84.90
2017-08-14T20:16:25.439Z,85.30
2017-08-14T20:18:52.971Z,86.20
2017-08-14T20:21:20.515Z,85.80
2017-08-14T20:23:48.056Z,85.70
2017-08-14T20:26:16.359Z,86.40
2017-08-14T20:28:43.867Z,86.30
2017-08-14T20:31:11.388Z,87.00
2017-08-14T20:33:38.928Z,86.30
2017-08-14T20:36:06.483Z,86.60
2017-08-14T20:38:33.983Z,86.70
2017-08-14T20:41:01.597Z,86.70
2017-08-14T20:43:29.103Z,86.80
2017-08-14T20:45:56.729Z,87.30
2017-08-14T20:48:24.271Z,87.80
2017-08-14T20:50:52.047Z,87.20
2017-08-14T20:53:19.550Z,87.50
2017-08-14T20:55:47.071Z,87.70
2017-08-14T20:58:15.394Z,88.00
2017-08-14T21:00:43.603Z,88.00
2017-08-14T21:03:11.799Z,88.30
2017-08-14T21:05:40.200Z,88.80
2017-08-14T21:08:10.379Z,88.50
2017-08-14T21:10:38.161Z,89.10
2017-08-14T21:13:05.695Z,89.40
2017-08-14T21:15:33.259Z,89.70
2017-08-14T21:18:01.539Z,89.80
2017-08-14T21:20:29.099Z,89.90
2017-08-14T21:22:56.618Z,89.40
2017-08-14T21:25:24.895Z,90.20
2017-08-14T21:27:53.184Z,90.40
2017-08-14T21:30:21.451Z,89.80
2017-08-14T21:32:49.758Z,90.10
2017-08-14T21:35:17.262Z,90.00
2017-08-14T21:37:44.787Z,89.90
2017-08-14T21:40:12.286Z,89.70
2017-08-14T21:42:39.886Z,89.90
2017-08-14T21:45:07.391Z,90.00
2017-08-14T21:47:35.020Z,90.00
2017-08-14T21:50:02.567Z,90.30
2017-08-14T21:52:30.083Z,90.60
2017-08-14T21:54:57.688Z,90.80
2017-08-14T21:57:25.366Z,91.00
2017-08-14T21:59:52.902Z,91.10
2017-08-14T22:02:20.427Z,91.20
2017-08-14T22:04:48.036Z,91.10
2017-08-14T22:07:15.835Z,91.20
2017-08-14T22:09:44.272Z,91.20
2017-08-14T22:12:11.828Z,91.50
2017-08-14T22:14:39.391Z,91.60
2017-08-14T22:17:06.898Z,91.80
2017-08-14T22:19:34.419Z,91.60
2017-08-14T22:22:01.959Z,91.70
2017-08-14T22:24:29.634Z,91.80
2017-08-14T22:26:57.382Z,91.80
2017-08-14T22:29:25.731Z,91.80
2017-08-14T22:31:54.003Z,91.90
2017-08-14T22:34:21.599Z,91.80
2017-08-14T22:36:49.666Z,92.10
2017-08-14T22:39:18.147Z,92.00
2017-08-14T22:41:45.651Z,92.10
2017-08-14T22:44:13.891Z,92.10
2017-08-14T22:46:42.158Z,92.10
2017-08-14T22:49:10.240Z,92.30
2017-08-14T22:51:37.807Z,92.40
2017-08-14T22:54:05.311Z,92.30
2017-08-14T22:56:32.831Z,92.40
2017-08-14T22:59:00.363Z,92.30
2017-08-14T23:01:27.891Z,92.40
2017-08-14T23:03:57.016Z,92.40
2017-08-14T23:06:25.395Z,92.40
2017-08-14T23:08:52.958Z,92.90
2017-08-14T23:11:20.515Z,93.00
2017-08-14T23:13:48.839Z,92.90
2017-08-14T23:16:16.368Z,93.00
2017-08-14T23:18:44.859Z,92.80
2017-08-14T23:21:12.835Z,92.70
2017-08-14T23:23:40.539Z,92.80
2017-08-14T23:26:08.870Z,93.10
2017-08-14T23:28:36.883Z,93.10
2017-08-14T23:31:06.015Z,92.90
2017-08-14T23:33:34.251Z,92.90
2017-08-14T23:36:02.555Z,92.50
2017-08-14T23:38:30.630Z,92.50
2017-08-14T23:40:58.902Z,92.50
2017-08-14T23:43:26.454Z,92.60
2017-08-14T23:45:53.995Z,92.60
2017-08-14T23:48:22.279Z,92.50
2017-08-14T23:50:50.158Z,92.50
2017-08-14T23:53:17.715Z,92.70
2017-08-14T23:55:45.279Z,92.60
2017-08-14T23:58:12.835Z,92.60
